createdAt,value
2017-12-19T00:01:46.452Z,16.90
2017-12-19T00:04:14.607Z,17.10
2017-12-19T00:06:42.817Z,17.05
2017-12-19T00:09:10.233Z,16.70
2017-12-19T00:11:37.660Z,16.05
2017-12-19T00:14:05.066Z,17.58
2017-12-19T00:16:32.589Z,17.50
2017-12-19T00:19:00.057Z,17.23
2017-12-19T00:21:27.528Z,17.27
2017-12-19T00:23:54.945Z,17.27
2017-12-19T00:26:22.374Z,18.02
2017-12-19T00:28:49.793Z,17.55
2017-12-19T00:31:17.212Z,17.75
2017-12-19T00:33:44.617Z,17.65
2017-12-19T00:36:12.042Z,17.83
2017-12-19T00:38:39.460Z,18.10
2017-12-19T00:41:06.881Z,18.40
2017-12-19T00:43:34.339Z,19.62
2017-12-19T00:46:01.798Z,19.80
2017-12-19T00:48:29.216Z,19.40
2017-12-19T00:50:56.648Z,20.33
2017-12-19T00:53:24.084Z,19.17
2017-12-19T00:55:51.483Z,20.40
2017-12-19T00:58:18.901Z,19.92
2017-12-19T01:00:46.338Z,19.37
2017-12-19T01:03:13.789Z,20.02
2017-12-19T01:05:41.217Z,20.65
2017-12-19T01:08:09.398Z,19.08
2017-12-19T01:10:36.831Z,20.62
2017-12-19T01:13:04.269Z,20.25
2017-12-19T01:15:31.685Z,20.58
2017-12-19T01:17:59.111Z,21.17
2017-12-19T01:20:26.522Z,21.55
2017-12-19T01:22:53.952Z,21.23
2017-12-19T01:25:21.373Z,21.90
2017-12-19T01:27:49.622Z,21.67
2017-12-19T01:30:17.125Z,20.90
2017-12-19T01:32:44.797Z,22.55
2017-12-19T01:35:13.794Z,23.02
2017-12-19T01:37:41.223Z,21.60
2017-12-19T01:40:09.310Z,22.77
2017-12-19T01:42:36.767Z,22.92
2017-12-19T01:45:04.238Z,23.50
2017-12-19T01:47:31.650Z,23.50
2017-12-19T01:49:59.070Z,24.42
2017-12-19T01:52:26.490Z,24.20
2017-12-19T01:54:54.733Z,23.87
2017-12-19T01:57:22.202Z,24.70
2017-12-19T01:59:49.682Z,23.70
2017-12-19T02:02:17.093Z,24.33
2017-12-19T02:04:44.512Z,24.48
2017-12-19T02:07:11.954Z,24.40
2017-12-19T02:09:39.373Z,24.25
2017-12-19T02:12:06.785Z,24.17
2017-12-19T02:14:34.990Z,23.92
2017-12-19T02:17:02.491Z,25.15
2017-12-19T02:19:29.917Z,23.67
2017-12-19T02:21:57.345Z,24.25
2017-12-19T02:24:24.767Z,24.02
2017-12-19T02:26:52.180Z,25.00
2017-12-19T02:29:19.613Z,25.52
2017-12-19T02:31:47.085Z,24.40
2017-12-19T02:34:14.542Z,23.15
2017-12-19T02:36:41.958Z,26.08
2017-12-19T02:39:09.382Z,24.80
2017-12-19T02:41:36.808Z,25.20
2017-12-19T02:44:04.214Z,26.50
2017-12-19T02:46:31.631Z,25.02
2017-12-19T02:48:59.057Z,25.50
2017-12-19T02:51:26.489Z,26.00
2017-12-19T02:53:54.708Z,25.67
2017-12-19T02:56:22.112Z,25.27
2017-12-19T02:58:49.670Z,25.90
2017-12-19T03:01:17.081Z,25.33
2017-12-19T03:03:45.299Z,26.67
2017-12-19T03:06:12.735Z,25.80
2017-12-19T03:08:40.269Z,25.17
2017-12-19T03:11:07.694Z,26.67
2017-12-19T03:13:35.179Z,26.75
2017-12-19T03:16:02.586Z,26.12
2017-12-19T03:18:30.010Z,26.48
2017-12-19T03:20:57.430Z,26.02
2017-12-19T03:23:24.865Z,27.02
2017-12-19T03:25:52.281Z,26.70
2017-12-19T03:28:20.500Z,27.45
2017-12-19T03:30:47.915Z,27.50
2017-12-19T03:33:15.370Z,27.87
2017-12-19T03:35:42.785Z,25.73
2017-12-19T03:38:10.206Z,27.80
2017-12-19T03:40:37.634Z,26.83
2017-12-19T03:43:05.094Z,26.73
2017-12-19T03:45:32.513Z,27.58
2017-12-19T03:47:59.965Z,26.33
2017-12-19T03:50:27.396Z,27.13
2017-12-19T03:52:55.622Z,27.90
2017-12-19T03:55:23.027Z,27.50
2017-12-19T03:57:50.539Z,27.42
2017-12-19T04:00:18.701Z,28.65
2017-12-19T04:02:46.882Z,27.80
2017-12-19T04:05:15.055Z,30.40
2017-12-19T04:07:42.472Z,27.85
2017-12-19T04:10:09.930Z,27.25
2017-12-19T04:12:37.394Z,28.83
2017-12-19T04:15:04.809Z,27.80
2017-12-19T04:17:32.235Z,28.80
2017-12-19T04:19:59.644Z,29.30
2017-12-19T04:22:27.071Z,29.35
2017-12-19T04:24:54.563Z,29.37
2017-12-19T04:27:21.951Z,28.95
2017-12-19T04:29:49.370Z,29.05
2017-12-19T04:32:16.782Z,29.60
2017-12-19T04:34:44.205Z,29.30
2017-12-19T04:37:11.619Z,28.80
2017-12-19T04:39:39.059Z,28.45
2017-12-19T04:42:06.507Z,30.92
2017-12-19T04:44:33.977Z,29.73
2017-12-19T04:47:01.398Z,29.75
2017-12-19T04:49:28.812Z,29.55
2017-12-19T04:51:56.237Z,29.58
2017-12-19T04:54:23.751Z,28.73
2017-12-19T04:56:51.168Z,28.50
2017-12-19T04:59:18.592Z,29.95
2017-12-19T05:01:46.008Z,30.33
2017-12-19T05:04:13.474Z,31.27
2017-12-19T05:06:40.857Z,31.73
2017-12-19T05:09:09.045Z,29.95
2017-12-19T05:11:37.227Z,30.30
2017-12-19T05:14:04.647Z,30.37
2017-12-19T05:16:32.101Z,30.58
2017-12-19T05:18:59.522Z,30.58
2017-12-19T05:21:26.932Z,29.83
2017-12-19T05:23:54.338Z,29.40
2017-12-19T05:26:21.790Z,29.05
2017-12-19T05:28:49.206Z,30.88
2017-12-19T05:31:16.709Z,30.23
2017-12-19T05:33:44.133Z,31.17
2017-12-19T05:36:11.644Z,30.83
2017-12-19T05:38:39.125Z,31.02
2017-12-19T05:41:06.537Z,29.58
2017-12-19T05:43:34.054Z,31.10
2017-12-19T05:46:01.531Z,31.10
2017-12-19T05:48:28.953Z,33.08
2017-12-19T05:50:56.384Z,31.48
2017-12-19T05:53:23.799Z,30.98
2017-12-19T05:55:52.015Z,30.42
2017-12-19T05:58:19.429Z,31.05
2017-12-19T06:00:46.858Z,32.03
2017-12-19T06:03:14.274Z,30.02
2017-12-19T06:05:41.693Z,30.65
2017-12-19T06:08:09.124Z,31.70
2017-12-19T06:10:37.298Z,30.45
2017-12-19T06:13:05.481Z,32.08
2017-12-19T06:15:32.999Z,30.95
2017-12-19T06:18:01.169Z,30.33
2017-12-19T06:20:28.761Z,33.35
2017-12-19T06:22:56.162Z,32.55
2017-12-19T06:25:23.586Z,32.05
2017-12-19T06:27:51.054Z,32.65
2017-12-19T06:30:18.524Z,30.90
2017-12-19T06:32:45.993Z,32.05
2017-12-19T06:35:13.429Z,32.90
2017-12-19T06:37:41.767Z,33.42
2017-12-19T06:40:09.203Z,30.42
2017-12-19T06:42:36.694Z,31.95
2017-12-19T06:45:04.139Z,31.00
2017-12-19T06:47:32.341Z,32.55
2017-12-19T06:49:59.810Z,31.90
2017-12-19T06:52:27.239Z,30.30
2017-12-19T06:54:54.793Z,29.48
2017-12-19T06:57:22.218Z,30.75
2017-12-19T06:59:49.691Z,31.42
2017-12-19T07:02:17.272Z,31.17
2017-12-19T07:04:44.663Z,28.92
2017-12-19T07:07:12.106Z,29.58
2017-12-19T07:09:39.581Z,31.00
2017-12-19T07:12:07.142Z,29.30
2017-12-19T07:14:34.555Z,29.45
2017-12-19T07:17:01.987Z,27.98
2017-12-19T07:19:29.447Z,29.58
2017-12-19T07:21:56.863Z,30.02
2017-12-19T07:24:24.384Z,30.00
2017-12-19T07:26:52.570Z,29.67
2017-12-19T07:29:20.044Z,27.58
2017-12-19T07:31:47.457Z,30.40
2017-12-19T07:34:14.872Z,29.20
2017-12-19T07:36:42.359Z,29.63
2017-12-19T07:39:09.770Z,28.83
2017-12-19T07:41:37.962Z,29.48
2017-12-19T07:44:06.159Z,28.02
2017-12-19T07:46:34.344Z,27.50
2017-12-19T07:49:02.556Z,30.80
2017-12-19T07:51:30.035Z,31.35
2017-12-19T07:53:57.533Z,28.65
2017-12-19T07:56:24.949Z,26.95
2017-12-19T07:58:52.367Z,28.33
2017-12-19T08:01:19.818Z,29.52
2017-12-19T08:03:47.280Z,29.92
2017-12-19T08:06:14.694Z,30.60
2017-12-19T08:08:42.907Z,29.30
2017-12-19T08:11:10.386Z,29.73
2017-12-19T08:13:37.833Z,29.87
2017-12-19T08:16:05.256Z,28.62
2017-12-19T08:18:32.681Z,28.67
2017-12-19T08:21:00.098Z,27.08
2017-12-19T08:23:27.530Z,29.33
2017-12-19T08:25:54.999Z,27.35
2017-12-19T08:28:22.461Z,27.33
2017-12-19T08:30:50.448Z,27.50
2017-12-19T08:33:17.868Z,28.12
2017-12-19T08:35:45.374Z,27.17
2017-12-19T08:38:12.799Z,28.58
2017-12-19T08:40:40.318Z,26.95
2017-12-19T08:43:07.794Z,26.52
2017-12-19T08:45:35.202Z,25.30
2017-12-19T08:48:02.737Z,26.60
2017-12-19T08:50:30.152Z,25.62
2017-12-19T08:52:57.570Z,25.20
2017-12-19T08:55:24.997Z,25.60
2017-12-19T08:57:52.454Z,22.83
2017-12-19T09:00:19.857Z,24.12
2017-12-19T09:02:47.286Z,25.25
2017-12-19T09:05:14.726Z,22.80
2017-12-19T09:07:42.160Z,22.73
2017-12-19T09:10:09.596Z,23.00
2017-12-19T09:12:37.217Z,23.42
2017-12-19T09:15:05.398Z,22.10
2017-12-19T09:17:32.866Z,22.52
2017-12-19T09:20:00.325Z,21.40
2017-12-19T09:22:27.742Z,20.05
2017-12-19T09:24:55.172Z,19.83
2017-12-19T09:27:22.656Z,20.48
2017-12-19T09:29:50.122Z,20.02
2017-12-19T09:32:17.578Z,19.55
2017-12-19T09:34:45.002Z,19.20
2017-12-19T09:37:12.421Z,20.75
2017-12-19T09:39:39.949Z,18.35
2017-12-19T09:42:08.129Z,17.30
2017-12-19T09:44:36.358Z,17.62
2017-12-19T09:47:03.766Z,18.40
2017-12-19T09:49:31.405Z,18.15
2017-12-19T09:51:59.596Z,17.37
2017-12-19T09:54:27.006Z,17.20
2017-12-19T09:56:54.512Z,17.35
2017-12-19T09:59:21.996Z,18.60
2017-12-19T10:01:50.195Z,18.05
2017-12-19T10:04:17.690Z,18.12
2017-12-19T10:06:45.261Z,18.67
2017-12-19T10:09:12.697Z,17.93
2017-12-19T10:11:40.113Z,17.50
2017-12-19T10:14:08.333Z,18.40
2017-12-19T10:16:36.501Z,17.65
2017-12-19T10:19:04.682Z,18.95
2017-12-19T10:21:32.925Z,18.77
2017-12-19T10:24:00.366Z,16.60
2017-12-19T10:26:27.790Z,17.12
2017-12-19T10:28:55.237Z,17.33
2017-12-19T10:31:23.499Z,16.37
2017-12-19T10:33:51.263Z,17.15
2017-12-19T10:36:19.458Z,18.57
2017-12-19T10:38:47.622Z,17.42
2017-12-19T10:41:15.105Z,15.93
2017-12-19T10:43:42.718Z,17.10
2017-12-19T10:46:10.130Z,17.77
2017-12-19T10:48:37.579Z,18.00
2017-12-19T10:51:05.838Z,17.62
2017-12-19T10:53:33.267Z,16.80
2017-12-19T10:56:00.744Z,16.77
2017-12-19T10:58:28.309Z,15.32
2017-12-19T11:00:55.739Z,14.27
2017-12-19T11:03:23.220Z,15.05
2017-12-19T11:05:51.449Z,14.10
2017-12-19T11:08:18.934Z,13.60
2017-12-19T11:10:46.492Z,13.85
2017-12-19T11:13:13.879Z,12.82
2017-12-19T11:15:41.304Z,13.27
2017-12-19T11:18:08.736Z,12.93
2017-12-19T11:20:36.167Z,12.70
2017-12-19T11:23:03.702Z,12.50
2017-12-19T11:25:31.194Z,11.70
2017-12-19T11:27:58.606Z,11.40
2017-12-19T11:30:26.162Z,11.73
2017-12-19T11:32:53.563Z,12.00
2017-12-19T11:35:21.790Z,12.53
2017-12-19T11:37:49.234Z,11.57
2017-12-19T11:40:16.729Z,12.18
2017-12-19T11:42:44.189Z,11.60
2017-12-19T11:45:11.874Z,12.03
2017-12-19T11:47:39.269Z,11.73
2017-12-19T11:50:06.693Z,12.30
2017-12-19T11:52:34.118Z,12.43
2017-12-19T11:55:01.536Z,12.97
2017-12-19T11:57:28.962Z,13.25
2017-12-19T11:59:57.158Z,14.17
2017-12-19T12:02:24.563Z,13.43
2017-12-19T12:04:52.024Z,14.98
2017-12-19T12:07:19.504Z,15.80
2017-12-19T12:09:46.962Z,15.67
2017-12-19T12:12:14.470Z,15.30
2017-12-19T12:14:41.882Z,16.67
2017-12-19T12:17:09.298Z,16.33
2017-12-19T12:19:36.717Z,16.87
2017-12-19T12:22:04.151Z,16.70
2017-12-19T12:24:31.573Z,15.87
2017-12-19T12:26:59.733Z,15.73
2017-12-19T12:29:27.947Z,15.95
2017-12-19T12:31:55.410Z,16.67
2017-12-19T12:34:22.995Z,17.20
2017-12-19T12:36:50.458Z,16.93
2017-12-19T12:39:17.869Z,16.37
2017-12-19T12:41:45.290Z,17.87
2017-12-19T12:44:12.722Z,16.90
2017-12-19T12:46:40.941Z,17.80
2017-12-19T12:49:08.371Z,16.23
2017-12-19T12:51:35.783Z,17.20
2017-12-19T12:54:03.181Z,16.27
2017-12-19T12:56:30.624Z,16.50
2017-12-19T12:58:58.023Z,16.37
2017-12-19T13:01:25.446Z,16.90
2017-12-19T13:03:52.863Z,17.20
2017-12-19T13:06:20.311Z,16.47
2017-12-19T13:08:47.749Z,14.10
2017-12-19T13:11:15.174Z,15.75
2017-12-19T13:13:42.689Z,15.00
2017-12-19T13:16:10.839Z,16.83
2017-12-19T13:18:38.202Z,15.83
2017-12-19T13:21:07.132Z,16.70
2017-12-19T13:23:35.337Z,17.63
2017-12-19T13:26:02.790Z,16.35
2017-12-19T13:28:30.219Z,16.80
2017-12-19T13:30:57.762Z,16.23
2017-12-19T13:33:25.211Z,16.80
2017-12-19T13:35:52.695Z,16.93
2017-12-19T13:38:20.149Z,15.70
2017-12-19T13:40:47.550Z,16.10
2017-12-19T13:43:14.962Z,16.00
2017-12-19T13:45:43.172Z,17.13
2017-12-19T13:48:10.588Z,15.70
2017-12-19T13:50:38.110Z,15.70
2017-12-19T13:53:05.579Z,15.17
2017-12-19T13:55:33.018Z,14.77
2017-12-19T13:58:01.236Z,16.57
2017-12-19T14:00:28.637Z,16.23
2017-12-19T14:02:56.055Z,15.13
2017-12-19T14:05:23.461Z,14.10
2017-12-19T14:07:50.906Z,15.43
2017-12-19T14:10:19.164Z,14.33
2017-12-19T14:12:46.506Z,16.13
2017-12-19T14:15:13.927Z,15.57
2017-12-19T14:17:41.401Z,15.60
2017-12-19T14:20:08.976Z,14.90
2017-12-19T14:22:36.394Z,14.97
2017-12-19T14:25:03.796Z,14.90
2017-12-19T14:27:31.273Z,15.77
2017-12-19T14:29:58.746Z,15.43
2017-12-19T14:32:26.162Z,14.97
2017-12-19T14:34:53.607Z,14.43
2017-12-19T14:37:21.072Z,14.90
2017-12-19T14:39:48.541Z,14.47
2017-12-19T14:42:15.971Z,14.57
2017-12-19T14:44:43.428Z,15.63
2017-12-19T14:47:11.629Z,16.13
2017-12-19T14:49:39.074Z,15.67
2017-12-19T14:52:07.285Z,17.03
2017-12-19T14:54:34.706Z,17.13
2017-12-19T14:57:02.132Z,15.37
2017-12-19T14:59:29.550Z,16.50
2017-12-19T15:01:57.067Z,18.30
2017-12-19T15:04:24.539Z,15.67
2017-12-19T15:06:52.022Z,17.40
2017-12-19T15:09:19.429Z,16.20
2017-12-19T15:11:46.841Z,17.40
2017-12-19T15:14:14.319Z,16.93
2017-12-19T15:16:41.718Z,18.63
2017-12-19T15:19:09.567Z,18.40
2017-12-19T15:21:36.946Z,17.40
2017-12-19T15:24:04.395Z,16.67
2017-12-19T15:26:31.781Z,19.33
2017-12-19T15:28:59.217Z,18.17
2017-12-19T15:31:26.643Z,17.43
2017-12-19T15:33:54.087Z,18.17
2017-12-19T15:36:21.512Z,18.13
2017-12-19T15:38:49.001Z,19.85
2017-12-19T15:41:16.474Z,18.87
2017-12-19T15:43:43.858Z,19.40
2017-12-19T15:46:11.306Z,19.27
2017-12-19T15:48:38.724Z,20.17
2017-12-19T15:51:06.230Z,20.30
2017-12-19T15:53:33.652Z,19.47
2017-12-19T15:56:01.062Z,19.50
2017-12-19T15:58:29.264Z,20.90
2017-12-19T16:00:56.768Z,21.27
2017-12-19T16:03:24.165Z,21.20
2017-12-19T16:05:52.346Z,21.60
2017-12-19T16:08:19.754Z,21.53
2017-12-19T16:10:47.189Z,20.60
2017-12-19T16:13:15.386Z,20.77
2017-12-19T16:15:43.610Z,21.80
2017-12-19T16:18:11.030Z,21.17
2017-12-19T16:20:39.212Z,19.67
2017-12-19T16:23:06.627Z,23.07
2017-12-19T16:25:34.073Z,21.67
2017-12-19T16:28:01.556Z,22.53
2017-12-19T16:30:29.035Z,21.83
2017-12-19T16:32:56.490Z,21.93
2017-12-19T16:35:23.918Z,21.63
2017-12-19T16:37:51.331Z,23.63
2017-12-19T16:40:18.738Z,22.43
2017-12-19T16:42:46.279Z,22.33
2017-12-19T16:45:13.690Z,22.00
2017-12-19T16:47:41.526Z,22.50
2017-12-19T16:50:08.926Z,22.70
2017-12-19T16:52:36.435Z,23.83
2017-12-19T16:55:03.907Z,21.67
2017-12-19T16:57:31.321Z,21.80
2017-12-19T16:59:58.763Z,23.40
2017-12-19T17:02:26.166Z,23.03
2017-12-19T17:04:53.587Z,23.63
2017-12-19T17:07:21.006Z,23.00
2017-12-19T17:09:49.173Z,24.40
2017-12-19T17:12:16.603Z,24.10
2017-12-19T17:14:44.010Z,23.00
2017-12-19T17:17:11.417Z,22.00
2017-12-19T17:19:39.630Z,24.20
2017-12-19T17:22:07.104Z,23.10
2017-12-19T17:24:34.675Z,21.60
2017-12-19T17:27:02.825Z,23.20
2017-12-19T17:29:31.045Z,22.50
2017-12-19T17:31:59.196Z,23.77
2017-12-19T17:34:27.372Z,23.40
2017-12-19T17:36:55.599Z,23.60
2017-12-19T17:39:23.103Z,22.77
2017-12-19T17:41:50.522Z,23.53
2017-12-19T17:44:18.018Z,22.97
2017-12-19T17:46:45.434Z,23.10
2017-12-19T17:49:13.663Z,23.10
2017-12-19T17:51:41.131Z,23.80
2017-12-19T17:54:08.597Z,23.97
2017-12-19T17:56:36.066Z,24.10
2017-12-19T17:59:03.475Z,24.57
2017-12-19T18:01:30.876Z,23.37
2017-12-19T18:03:59.085Z,24.53
2017-12-19T18:06:26.486Z,24.20
2017-12-19T18:08:53.926Z,24.30
2017-12-19T18:11:21.382Z,25.52
2017-12-19T18:13:48.874Z,25.97
2017-12-19T18:16:16.265Z,23.70
2017-12-19T18:18:43.685Z,25.80
2017-12-19T18:21:11.099Z,26.10
2017-12-19T18:23:38.506Z,26.40
2017-12-19T18:26:06.685Z,25.73
2017-12-19T18:28:34.191Z,26.07
2017-12-19T18:31:01.675Z,27.03
2017-12-19T18:33:29.148Z,27.17
2017-12-19T18:35:56.566Z,27.77
2017-12-19T18:38:24.749Z,24.87
2017-12-19T18:40:52.929Z,27.00
2017-12-19T18:43:21.159Z,25.97
2017-12-19T18:45:49.317Z,25.90
2017-12-19T18:48:17.502Z,26.80
2017-12-19T18:50:45.682Z,25.37
2017-12-19T18:53:13.870Z,26.40
2017-12-19T18:55:42.047Z,27.37
2017-12-19T18:58:09.511Z,26.40
2017-12-19T19:00:36.926Z,27.03
2017-12-19T19:03:04.339Z,26.73
2017-12-19T19:05:31.872Z,28.07
2017-12-19T19:07:59.282Z,29.23
2017-12-19T19:10:26.811Z,26.83
2017-12-19T19:12:54.226Z,28.40
2017-12-19T19:15:21.645Z,25.40
2017-12-19T19:17:49.103Z,25.33
2017-12-19T19:20:16.531Z,24.27
2017-12-19T19:22:43.939Z,25.27
2017-12-19T19:25:11.493Z,26.13
2017-12-19T19:27:38.901Z,27.43
2017-12-19T19:30:06.354Z,28.50
2017-12-19T19:32:33.771Z,29.00
2017-12-19T19:35:01.278Z,29.73
2017-12-19T19:37:28.702Z,31.27
2017-12-19T19:39:56.939Z,31.17
2017-12-19T19:42:25.184Z,31.60
2017-12-19T19:44:52.595Z,32.00
2017-12-19T19:47:20.765Z,32.03
2017-12-19T19:49:48.178Z,32.67
2017-12-19T19:52:15.602Z,31.93
2017-12-19T19:54:43.083Z,33.93
2017-12-19T19:57:10.518Z,36.67
2017-12-19T19:59:38.030Z,33.93
2017-12-19T20:02:05.446Z,34.80
2017-12-19T20:04:32.845Z,34.73
2017-12-19T20:07:00.259Z,34.67
2017-12-19T20:09:27.681Z,35.10
2017-12-19T20:11:55.104Z,36.10
2017-12-19T20:14:22.626Z,36.03
2017-12-19T20:16:50.089Z,34.77
2017-12-19T20:19:17.494Z,34.80
2017-12-19T20:21:44.906Z,35.70
2017-12-19T20:24:13.098Z,34.37
2017-12-19T20:26:41.289Z,35.90
2017-12-19T20:29:08.715Z,35.13
2017-12-19T20:31:37.782Z,36.33
2017-12-19T20:34:05.197Z,36.67
2017-12-19T20:36:32.627Z,33.63
2017-12-19T20:39:00.045Z,33.40
2017-12-19T20:41:27.657Z,33.93
2017-12-19T20:43:55.835Z,34.80
2017-12-19T20:46:24.022Z,34.60
2017-12-19T20:48:51.433Z,33.67
2017-12-19T20:51:18.842Z,33.00
2017-12-19T20:53:47.120Z,32.60
2017-12-19T20:56:14.614Z,32.67
2017-12-19T20:58:42.026Z,33.13
2017-12-19T21:01:09.514Z,34.07
2017-12-19T21:03:36.994Z,31.47
2017-12-19T21:06:05.221Z,32.17
2017-12-19T21:08:32.631Z,33.50
2017-12-19T21:11:00.063Z,33.03
2017-12-19T21:13:27.478Z,31.80
2017-12-19T21:15:55.698Z,32.20
2017-12-19T21:18:23.122Z,33.20
2017-12-19T21:20:50.529Z,34.40
2017-12-19T21:23:18.007Z,33.87
2017-12-19T21:25:45.423Z,34.13
2017-12-19T21:28:12.838Z,31.90
2017-12-19T21:30:40.261Z,33.30
2017-12-19T21:33:07.680Z,31.60
2017-12-19T21:35:35.150Z,32.43
2017-12-19T21:38:02.557Z,31.33
2017-12-19T21:40:29.986Z,30.83
2017-12-19T21:42:57.404Z,31.60
2017-12-19T21:45:24.816Z,29.20
2017-12-19T21:47:52.222Z,30.20
2017-12-19T21:50:19.634Z,30.17
2017-12-19T21:52:47.134Z,31.10
2017-12-19T21:55:14.554Z,29.50
2017-12-19T21:57:41.971Z,28.53
2017-12-19T22:00:09.434Z,29.70
2017-12-19T22:02:36.895Z,30.17
2017-12-19T22:05:04.366Z,28.43
2017-12-19T22:07:32.542Z,28.63
2017-12-19T22:10:00.010Z,29.10
2017-12-19T22:12:27.486Z,27.73
2017-12-19T22:14:54.964Z,29.30
2017-12-19T22:17:22.425Z,30.07
2017-12-19T22:19:49.937Z,29.87
2017-12-19T22:22:17.357Z,28.40
2017-12-19T22:24:44.827Z,29.07
2017-12-19T22:27:12.248Z,27.43
2017-12-19T22:29:39.668Z,29.60
2017-12-19T22:32:07.091Z,28.73
2017-12-19T22:34:34.511Z,26.03
2017-12-19T22:37:01.970Z,28.47
2017-12-19T22:39:29.433Z,26.97
2017-12-19T22:41:56.849Z,27.70
2017-12-19T22:44:24.253Z,27.77
2017-12-19T22:46:52.433Z,28.70
2017-12-19T22:49:20.763Z,27.23
2017-12-19T22:51:48.215Z,26.20
2017-12-19T22:54:15.670Z,27.33
2017-12-19T22:56:43.867Z,25.37
2017-12-19T22:59:12.051Z,25.07
2017-12-19T23:01:39.460Z,26.73
2017-12-19T23:04:06.870Z,26.70
2017-12-19T23:06:35.113Z,25.70
2017-12-19T23:09:03.227Z,26.63
2017-12-19T23:11:30.645Z,24.67
2017-12-19T23:13:58.099Z,26.33
2017-12-19T23:16:25.506Z,27.10
2017-12-19T23:18:52.913Z,25.43
2017-12-19T23:21:21.134Z,25.13
2017-12-19T23:23:48.594Z,25.20
2017-12-19T23:26:16.023Z,24.07
2017-12-19T23:28:43.430Z,22.60
2017-12-19T23:31:10.897Z,23.10
2017-12-19T23:33:38.333Z,21.77
2017-12-19T23:36:05.746Z,21.80
2017-12-19T23:38:33.174Z,22.23
2017-12-19T23:41:00.578Z,22.20
2017-12-19T23:43:28.000Z,21.03
2017-12-19T23:45:55.407Z,21.13
2017-12-19T23:48:22.822Z,21.30
2017-12-19T23:50:50.234Z,19.37
2017-12-19T23:53:17.645Z,19.90
2017-12-19T23:55:45.093Z,18.87
2017-12-19T23:58:12.477Z,17.83
